createdAt,value
2023-03-06T00:00:58.472Z,17.13
2023-03-06T00:03:28.044Z,20.10
2023-03-06T00:05:57.495Z,21.03
2023-03-06T00:08:25.997Z,20.40
2023-03-06T00:10:53.064Z,17.90
2023-03-06T00:13:22.035Z,17.50
2023-03-06T00:15:49.315Z,19.20
2023-03-06T00:18:16.220Z,18.10
2023-03-06T00:20:44.708Z,19.43
2023-03-06T00:23:11.659Z,23.60
2023-03-06T00:25:43.077Z,21.13
2023-03-06T00:28:10.026Z,22.30
2023-03-06T00:30:36.884Z,20.67
2023-03-06T00:33:03.818Z,21.57
2023-03-06T00:35:30.742Z,19.00
2023-03-06T00:37:59.785Z,22.93
2023-03-06T00:40:26.867Z,24.17
2023-03-06T00:42:53.643Z,18.50
2023-03-06T00:45:20.614Z,22.10
2023-03-06T00:47:47.559Z,20.17
2023-03-06T00:50:14.478Z,18.83
2023-03-06T00:52:42.078Z,25.07
2023-03-06T00:55:10.153Z,22.17
2023-03-06T00:57:37.207Z,19.90
2023-03-06T01:00:05.597Z,19.00
2023-03-06T01:02:32.866Z,20.57
2023-03-06T01:04:59.816Z,20.20
2023-03-06T01:07:27.812Z,22.80
2023-03-06T01:09:54.620Z,19.93
2023-03-06T01:12:23.398Z,22.50
2023-03-06T01:14:50.599Z,17.50
2023-03-06T01:17:17.627Z,19.30
2023-03-06T01:19:44.352Z,16.90
2023-03-06T01:22:11.129Z,17.90
2023-03-06T01:24:37.976Z,19.60
2023-03-06T01:27:04.914Z,18.30
2023-03-06T01:29:31.661Z,16.33
2023-03-06T01:31:58.448Z,19.60
2023-03-06T01:34:25.713Z,18.90
2023-03-06T01:36:52.537Z,20.47
2023-03-06T01:39:19.289Z,20.33
2023-03-06T01:41:46.023Z,17.90
2023-03-06T01:44:14.363Z,18.93
2023-03-06T01:46:42.332Z,20.20
2023-03-06T01:49:25.708Z,18.87
2023-03-06T01:51:56.778Z,18.23
2023-03-06T01:54:28.776Z,22.93
2023-03-06T01:57:07.291Z,19.97
2023-03-06T01:59:37.724Z,19.60
2023-03-06T02:02:08.427Z,21.90
2023-03-06T02:04:37.309Z,23.40
2023-03-06T02:07:04.890Z,20.13
2023-03-06T02:09:34.170Z,21.50
2023-03-06T02:12:03.137Z,21.67
2023-03-06T02:14:30.419Z,21.07
2023-03-06T02:16:57.484Z,21.17
2023-03-06T02:19:40.983Z,20.50
2023-03-06T02:22:07.820Z,18.90
2023-03-06T02:24:45.609Z,22.90
2023-03-06T02:27:14.499Z,18.43
2023-03-06T02:29:41.363Z,21.10
2023-03-06T02:32:08.253Z,20.03
2023-03-06T02:34:37.156Z,19.63
2023-03-06T02:37:09.404Z,19.70
2023-03-06T02:39:41.665Z,18.13
2023-03-06T02:42:08.838Z,19.73
2023-03-06T02:44:36.872Z,20.97
2023-03-06T02:47:03.838Z,21.23
2023-03-06T02:49:30.633Z,22.20
2023-03-06T02:51:57.437Z,23.00
2023-03-06T02:54:24.211Z,20.90
2023-03-06T02:56:51.068Z,19.93
2023-03-06T02:59:17.950Z,19.17
2023-03-06T03:01:44.807Z,21.80
2023-03-06T03:04:11.601Z,18.00
2023-03-06T03:06:38.373Z,19.00
2023-03-06T03:09:05.134Z,24.13
2023-03-06T03:11:31.862Z,20.27
2023-03-06T03:13:58.726Z,16.37
2023-03-06T03:16:25.553Z,18.63
2023-03-06T03:18:52.483Z,18.07
2023-03-06T03:21:19.366Z,18.60
2023-03-06T03:23:46.140Z,20.10
2023-03-06T03:26:18.661Z,19.93
2023-03-06T03:28:45.747Z,21.53
2023-03-06T03:31:13.237Z,17.70
2023-03-06T03:33:40.746Z,22.87
2023-03-06T03:36:08.392Z,22.30
2023-03-06T03:38:35.447Z,24.80
2023-03-06T03:41:04.922Z,20.47
2023-03-06T03:43:32.046Z,22.43
2023-03-06T03:45:58.831Z,19.30
2023-03-06T03:48:25.629Z,18.00
2023-03-06T03:50:52.430Z,21.73
2023-03-06T03:53:19.199Z,20.00
2023-03-06T03:55:48.378Z,23.93
2023-03-06T03:58:15.143Z,19.70
2023-03-06T05:01:18.616Z,22.80
2023-03-06T05:03:45.582Z,26.90
2023-03-06T05:06:12.496Z,24.30
2023-03-06T05:08:39.365Z,25.17
2023-03-06T05:11:06.100Z,20.73
2023-03-06T05:13:32.994Z,26.60
2023-03-06T05:16:04.499Z,32.10
2023-03-06T05:18:31.945Z,30.77
2023-03-06T05:20:59.932Z,38.03
2023-03-06T05:23:30.716Z,30.00
2023-03-06T05:25:58.078Z,24.70
2023-03-06T05:28:26.010Z,28.93
2023-03-06T05:30:53.004Z,26.43
2023-03-06T05:33:19.779Z,30.97
2023-03-06T05:35:48.412Z,22.87
2023-03-06T05:38:16.181Z,26.03
2023-03-06T05:40:44.116Z,24.80
2023-03-06T05:43:11.990Z,24.67
2023-03-06T05:45:40.024Z,25.60
2023-03-06T05:48:07.997Z,30.33
2023-03-06T05:50:35.026Z,24.67
2023-03-06T05:53:01.963Z,21.27
2023-03-06T05:55:28.899Z,22.47
2023-03-06T05:57:55.678Z,25.23
2023-03-06T06:00:22.997Z,26.37
2023-03-06T06:02:49.821Z,27.90
2023-03-06T06:05:16.657Z,30.57
2023-03-06T06:07:43.630Z,24.93
2023-03-06T06:10:11.956Z,25.13
2023-03-06T06:12:39.015Z,24.83
2023-03-06T06:15:06.812Z,21.60
2023-03-06T06:17:33.826Z,21.00
2023-03-06T06:20:00.799Z,22.13
2023-03-06T06:22:27.694Z,21.40
2023-03-06T06:24:54.632Z,23.67
2023-03-06T06:27:21.396Z,26.80
2023-03-06T06:29:51.340Z,29.33
2023-03-06T06:32:18.240Z,20.60
2023-03-06T06:34:45.496Z,24.30
2023-03-06T06:37:12.470Z,19.70
2023-03-06T06:39:39.529Z,22.30
2023-03-06T06:42:29.079Z,20.70
2023-03-06T06:44:55.381Z,23.70
2023-03-06T06:47:24.903Z,25.93
2023-03-06T06:49:54.687Z,21.27
2023-03-06T06:52:23.223Z,19.27
2023-03-06T06:54:51.095Z,21.70
2023-03-06T06:57:19.351Z,21.37
2023-03-06T06:59:46.376Z,24.67
2023-03-06T07:02:15.783Z,18.63
2023-03-06T07:04:56.497Z,18.53
2023-03-06T07:07:30.200Z,19.87
2023-03-06T07:09:57.589Z,18.77
2023-03-06T07:12:24.626Z,22.00
2023-03-06T07:14:51.880Z,22.47
2023-03-06T07:17:18.989Z,18.50
2023-03-06T07:19:45.748Z,18.97
2023-03-06T07:22:12.699Z,20.63
2023-03-06T07:24:39.520Z,19.27
2023-03-06T07:27:06.326Z,23.67
2023-03-06T07:29:34.560Z,20.40
2023-03-06T07:32:02.078Z,22.60
2023-03-06T07:34:29.008Z,21.70
2023-03-06T07:36:55.813Z,21.90
2023-03-06T07:39:22.584Z,21.40
2023-03-06T07:41:49.355Z,18.87
2023-03-06T07:44:16.204Z,17.90
2023-03-06T07:46:42.945Z,22.07
2023-03-06T07:49:10.012Z,20.43
2023-03-06T07:51:36.958Z,19.50
2023-03-06T07:54:03.810Z,17.07
2023-03-06T07:56:30.616Z,23.33
2023-03-06T07:58:57.374Z,18.53
2023-03-06T08:01:24.393Z,25.80
2023-03-06T08:03:51.456Z,19.30
2023-03-06T08:06:19.872Z,15.30
2023-03-06T08:08:49.023Z,23.73
2023-03-06T08:11:17.571Z,21.70
2023-03-06T08:13:44.733Z,18.50
2023-03-06T08:16:11.900Z,18.60
2023-03-06T08:18:39.971Z,21.17
2023-03-06T08:21:08.939Z,22.93
2023-03-06T08:23:36.700Z,19.30
2023-03-06T08:26:07.817Z,16.03
2023-03-06T08:28:34.850Z,20.80
2023-03-06T08:31:15.788Z,23.23
2023-03-06T08:33:42.700Z,18.23
2023-03-06T08:36:09.621Z,16.43
2023-03-06T08:38:36.460Z,16.30
2023-03-06T08:41:03.533Z,17.87
2023-03-06T08:43:30.449Z,16.97
2023-03-06T08:45:58.589Z,22.47
2023-03-06T08:48:25.667Z,17.20
2023-03-06T08:50:52.926Z,15.03
2023-03-06T08:53:20.627Z,13.87
2023-03-06T08:55:48.455Z,14.60
2023-03-06T08:58:15.273Z,17.00
2023-03-06T09:00:42.163Z,14.53
2023-03-06T09:03:09.057Z,14.80
2023-03-06T09:05:36.094Z,13.90
2023-03-06T09:08:02.953Z,13.87
2023-03-06T09:10:29.817Z,12.17
2023-03-06T09:12:56.749Z,13.57
2023-03-06T09:15:24.862Z,12.47
2023-03-06T09:17:51.991Z,12.53
2023-03-06T09:20:19.349Z,12.90
2023-03-06T09:22:46.734Z,14.03
2023-03-06T09:25:14.822Z,11.93
2023-03-06T09:27:41.633Z,13.17
2023-03-06T09:30:09.058Z,14.70
2023-03-06T09:32:35.871Z,13.30
2023-03-06T09:35:03.068Z,9.67
2023-03-06T09:37:29.988Z,11.83
2023-03-06T09:39:57.698Z,12.63
2023-03-06T09:42:25.199Z,11.47
2023-03-06T09:44:55.280Z,11.00
2023-03-06T09:47:24.172Z,10.97
2023-03-06T09:50:04.951Z,12.93
2023-03-06T09:53:02.792Z,13.60
2023-03-06T09:55:34.224Z,12.70
2023-03-06T09:58:07.539Z,12.00
2023-03-06T10:00:39.623Z,13.17
2023-03-06T10:03:15.883Z,17.03
2023-03-06T10:05:48.536Z,16.80
2023-03-06T10:08:31.117Z,11.90
2023-03-06T10:11:02.427Z,14.00
2023-03-06T10:13:47.123Z,14.63
2023-03-06T10:16:26.548Z,16.50
2023-03-06T10:18:56.220Z,14.93
2023-03-06T10:21:38.954Z,14.10
2023-03-06T10:24:25.223Z,20.70
2023-03-06T10:27:04.603Z,14.57
2023-03-06T10:29:40.182Z,12.20
2023-03-06T10:32:19.788Z,14.87
2023-03-06T10:34:46.895Z,14.00
2023-03-06T10:37:19.890Z,13.57
2023-03-06T10:39:48.734Z,15.70
2023-03-06T10:42:15.500Z,13.83
2023-03-06T10:44:42.234Z,16.13
2023-03-06T10:47:27.570Z,16.10
2023-03-06T10:50:00.596Z,11.67
2023-03-06T10:52:31.859Z,21.10
2023-03-06T10:55:29.413Z,14.47
2023-03-06T10:57:56.846Z,12.30
2023-03-06T11:00:27.112Z,14.50
2023-03-06T11:03:04.808Z,14.83
2023-03-06T11:05:31.695Z,16.40
2023-03-06T11:08:00.419Z,15.90
2023-03-06T11:10:28.397Z,13.37
2023-03-06T11:13:07.698Z,15.87
2023-03-06T11:15:34.851Z,20.43
2023-03-06T11:18:05.018Z,17.27
2023-03-06T11:20:52.630Z,14.20
2023-03-06T11:23:36.321Z,13.03
2023-03-06T11:26:08.935Z,17.43
2023-03-06T11:29:10.800Z,14.90
2023-03-06T11:31:47.765Z,16.77
2023-03-06T11:34:25.622Z,17.33
2023-03-06T11:36:56.434Z,14.20
2023-03-06T11:39:54.811Z,15.97
2023-03-06T11:42:29.495Z,21.70
2023-03-06T11:45:04.017Z,17.03
2023-03-06T11:47:39.339Z,16.77
2023-03-06T11:50:21.538Z,17.30
2023-03-06T11:53:05.280Z,15.27
2023-03-06T11:55:55.197Z,17.17
2023-03-06T11:58:40.873Z,22.60
2023-03-06T12:01:27.410Z,16.03
2023-03-06T12:04:04.782Z,14.37
2023-03-06T12:06:49.660Z,13.20
2023-03-06T12:09:47.381Z,12.73
2023-03-06T12:15:00.786Z,15.80
2023-03-06T12:17:47.909Z,13.53
2023-03-06T12:20:35.608Z,15.67
2023-03-06T12:23:28.294Z,13.23
2023-03-06T12:26:11.841Z,20.13
2023-03-06T12:29:01.460Z,17.20
2023-03-06T12:31:46.551Z,15.57
2023-03-06T12:34:29.712Z,13.67
2023-03-06T12:37:00.937Z,15.87
2023-03-06T12:39:28.805Z,15.33
2023-03-06T12:42:08.846Z,12.73
2023-03-06T12:44:42.923Z,11.13
2023-03-06T12:47:15.553Z,10.40
2023-03-06T12:49:46.414Z,8.43
2023-03-06T12:52:29.818Z,9.07
2023-03-06T12:54:59.784Z,10.73
2023-03-06T12:57:27.940Z,12.57
2023-03-06T12:59:55.305Z,9.60
2023-03-06T13:02:46.276Z,9.70
2023-03-06T13:05:32.029Z,7.63
2023-03-06T13:08:15.134Z,8.10
2023-03-06T13:10:43.919Z,12.20
2023-03-06T13:13:33.505Z,6.10
2023-03-06T13:16:15.773Z,6.87
2023-03-06T13:18:42.612Z,11.93
2023-03-06T13:21:44.623Z,8.20
2023-03-06T13:24:22.982Z,7.73
2023-03-06T13:27:06.646Z,8.53
2023-03-06T13:29:36.721Z,9.47
2023-03-06T13:32:03.745Z,8.93
2023-03-06T13:34:31.582Z,8.00
2023-03-06T13:37:23.427Z,6.00
2023-03-06T13:39:58.829Z,8.47
2023-03-06T13:42:28.831Z,8.77
2023-03-06T13:44:58.418Z,7.20
2023-03-06T13:47:32.471Z,15.70
2023-03-06T13:50:00.549Z,10.90
2023-03-06T13:52:35.644Z,11.63
2023-03-06T13:55:09.264Z,10.40
2023-03-06T13:57:38.241Z,7.73
2023-03-06T14:00:23.975Z,8.20
2023-03-06T14:03:06.244Z,7.83
2023-03-06T14:05:43.388Z,8.10
2023-03-06T14:08:15.972Z,8.50
2023-03-06T14:10:44.817Z,9.00
2023-03-06T14:13:35.139Z,9.47
2023-03-06T14:16:17.314Z,14.53
2023-03-06T14:18:47.828Z,9.13
2023-03-06T14:21:21.377Z,9.47
2023-03-06T14:24:00.662Z,12.43
2023-03-06T14:26:32.991Z,11.03
2023-03-06T14:29:02.085Z,11.47
2023-03-06T14:31:32.844Z,16.17
2023-03-06T14:34:06.751Z,8.30
2023-03-06T14:36:42.866Z,12.57
2023-03-06T14:39:29.683Z,10.00
2023-03-06T14:42:19.746Z,9.97
2023-03-06T14:44:48.091Z,9.43
2023-03-06T14:47:31.868Z,9.13
2023-03-06T14:50:23.323Z,8.57
2023-03-06T14:53:03.106Z,12.30
2023-03-06T14:55:34.814Z,9.30
2023-03-06T14:58:08.086Z,7.90
2023-03-06T15:00:40.388Z,10.13
2023-03-06T15:03:19.371Z,7.33
2023-03-06T15:05:48.513Z,8.30
2023-03-06T15:08:22.048Z,10.17
2023-03-06T15:11:06.046Z,8.73
2023-03-06T15:13:34.556Z,10.60
2023-03-06T15:16:08.776Z,10.93
2023-03-06T15:18:39.310Z,10.67
2023-03-06T15:21:10.800Z,10.80
2023-03-06T15:23:39.103Z,10.70
2023-03-06T15:26:21.207Z,10.73
2023-03-06T15:29:03.423Z,9.77
2023-03-06T15:31:37.928Z,12.47
2023-03-06T15:34:09.355Z,16.63
2023-03-06T15:36:46.684Z,11.47
2023-03-06T15:39:35.774Z,7.90
2023-03-06T15:42:19.370Z,9.97
2023-03-06T15:44:50.909Z,9.87
2023-03-06T15:47:17.957Z,11.20
2023-03-06T15:49:45.425Z,10.50
2023-03-06T15:52:12.553Z,8.83
2023-03-06T15:54:39.598Z,7.40
2023-03-06T15:57:13.120Z,8.73
2023-03-06T15:59:44.251Z,7.47
2023-03-06T16:02:17.454Z,10.20
2023-03-06T16:04:45.065Z,7.73
2023-03-06T16:07:12.609Z,10.03
2023-03-06T16:09:40.884Z,8.00
2023-03-06T16:12:15.760Z,8.03
2023-03-06T16:14:43.229Z,7.47
2023-03-06T16:17:12.818Z,8.97
2023-03-06T16:19:40.257Z,9.30
2023-03-06T16:22:07.251Z,8.30
2023-03-06T16:24:34.457Z,7.00
2023-03-06T16:27:02.613Z,14.57
2023-03-06T16:29:30.081Z,8.63
2023-03-06T16:31:58.922Z,12.57
2023-03-06T16:34:25.885Z,11.63
2023-03-06T16:36:52.990Z,9.43
2023-03-06T16:39:21.928Z,9.57
2023-03-06T16:41:49.983Z,10.97
2023-03-06T16:44:16.852Z,8.67
2023-03-06T16:46:45.992Z,7.13
2023-03-06T16:49:21.026Z,7.37
2023-03-06T16:51:48.331Z,10.03
2023-03-06T16:54:15.325Z,14.50
2023-03-06T16:56:42.795Z,20.83
2023-03-06T16:59:10.498Z,11.10
2023-03-06T17:01:37.921Z,8.20
2023-03-06T17:04:04.824Z,14.27
2023-03-06T17:06:31.684Z,9.70
2023-03-06T17:08:59.793Z,11.37
2023-03-06T17:11:27.137Z,11.30
2023-03-06T17:13:55.269Z,9.23
2023-03-06T17:16:22.281Z,8.53
2023-03-06T17:18:49.790Z,10.10
2023-03-06T17:21:16.955Z,7.73
2023-03-06T17:23:44.587Z,8.17
2023-03-06T17:26:14.502Z,12.63
2023-03-06T17:28:42.842Z,10.13
2023-03-06T17:31:16.182Z,14.43
2023-03-06T17:33:44.077Z,8.97
2023-03-06T17:36:11.674Z,12.03
2023-03-06T17:38:39.116Z,10.50
2023-03-06T17:41:08.422Z,10.07
2023-03-06T17:43:36.588Z,13.43
2023-03-06T17:46:06.707Z,11.63
2023-03-06T17:48:34.293Z,12.47
2023-03-06T17:51:02.153Z,13.20
2023-03-06T17:53:29.318Z,11.33
2023-03-06T17:55:59.951Z,17.17
2023-03-06T17:58:27.209Z,10.33
2023-03-06T18:00:54.326Z,11.93
2023-03-06T18:03:21.912Z,11.50
2023-03-06T18:05:58.137Z,13.20
2023-03-06T18:08:24.969Z,15.57
2023-03-06T18:10:51.870Z,26.47
2023-03-06T18:13:18.675Z,13.27
2023-03-06T18:15:45.492Z,17.67
2023-03-06T18:18:12.392Z,15.50
2023-03-06T18:20:42.691Z,12.00
2023-03-06T18:23:09.620Z,11.77
2023-03-06T18:25:36.438Z,12.63
2023-03-06T18:28:03.341Z,19.87
2023-03-06T18:30:30.077Z,13.50
2023-03-06T18:32:56.892Z,14.07
2023-03-06T18:35:23.712Z,13.10
2023-03-06T18:37:50.615Z,12.30
2023-03-06T18:40:17.709Z,13.67
2023-03-06T18:42:44.694Z,12.97
2023-03-06T18:45:12.911Z,11.40
2023-03-06T18:47:40.747Z,15.13
2023-03-06T18:50:07.958Z,13.17
2023-03-06T18:52:35.028Z,13.80
2023-03-06T18:55:01.993Z,12.97
2023-03-06T18:57:30.416Z,15.83
2023-03-06T18:59:57.411Z,16.47
2023-03-06T19:02:24.238Z,13.67
2023-03-06T19:04:53.023Z,13.03
2023-03-06T19:07:21.117Z,13.73
2023-03-06T19:09:49.146Z,12.50
2023-03-06T19:12:17.484Z,15.53
2023-03-06T19:14:45.045Z,14.07
2023-03-06T19:17:12.065Z,13.30
2023-03-06T19:19:39.386Z,25.00
2023-03-06T19:22:06.246Z,17.33
2023-03-06T19:24:33.101Z,11.00
2023-03-06T19:27:00.036Z,14.37
2023-03-06T19:29:28.206Z,11.50
2023-03-06T19:31:57.534Z,11.73
2023-03-06T19:34:24.535Z,13.40
2023-03-06T19:36:51.585Z,12.00
2023-03-06T19:39:22.281Z,12.20
2023-03-06T19:41:49.641Z,15.53
2023-03-06T19:44:16.461Z,18.67
2023-03-06T19:46:43.873Z,12.43
2023-03-06T19:49:16.846Z,16.60
2023-03-06T19:51:44.049Z,15.63
2023-03-06T19:54:12.906Z,19.20
2023-03-06T19:56:40.652Z,15.63
2023-03-06T19:59:07.533Z,38.47
2023-03-06T20:01:34.654Z,17.47
2023-03-06T20:04:01.711Z,14.83
2023-03-06T20:06:31.486Z,14.20
2023-03-06T20:08:58.758Z,15.17
2023-03-06T20:11:30.010Z,13.07
2023-03-06T20:13:59.245Z,15.10
2023-03-06T20:16:28.822Z,18.00
2023-03-06T20:18:58.979Z,16.13
2023-03-06T20:21:26.936Z,17.17
2023-03-06T20:23:57.041Z,23.67
2023-03-06T20:26:25.772Z,19.93
2023-03-06T20:28:52.905Z,13.43
2023-03-06T20:31:22.115Z,12.90
2023-03-06T20:33:51.113Z,11.57
2023-03-06T20:36:21.576Z,14.20
2023-03-06T20:38:49.081Z,13.47
2023-03-06T20:41:18.547Z,18.40
2023-03-06T20:43:45.492Z,17.23
2023-03-06T20:46:13.312Z,20.77
2023-03-06T20:48:41.904Z,15.07
2023-03-06T20:51:21.336Z,11.97
2023-03-06T20:53:49.493Z,14.57
2023-03-06T20:56:18.602Z,20.23
2023-03-06T20:58:45.619Z,15.27
2023-03-06T21:01:22.701Z,14.50
2023-03-06T21:03:49.952Z,14.77
2023-03-06T21:06:17.348Z,14.60
2023-03-06T21:08:44.853Z,16.37
2023-03-06T21:11:11.814Z,12.87
2023-03-06T21:13:38.758Z,15.60
2023-03-06T21:16:09.953Z,12.37
2023-03-06T21:18:37.196Z,15.63
2023-03-06T21:21:07.800Z,15.60
2023-03-06T21:23:34.671Z,15.37
2023-03-06T21:26:01.771Z,18.03
2023-03-06T21:28:28.799Z,13.63
2023-03-06T21:30:56.006Z,16.63
2023-03-06T21:33:22.860Z,12.67
2023-03-06T21:35:49.758Z,13.27
2023-03-06T21:38:17.133Z,14.40
2023-03-06T21:40:45.472Z,14.00
2023-03-06T21:43:13.093Z,17.70
2023-03-06T21:45:45.999Z,11.87
2023-03-06T21:48:14.654Z,10.77
2023-03-06T21:50:42.415Z,12.53
2023-03-06T21:53:09.686Z,16.23
2023-03-06T21:55:40.860Z,16.80
2023-03-06T21:58:08.044Z,19.50
2023-03-06T22:00:36.491Z,21.43
2023-03-06T22:03:04.733Z,15.47
2023-03-06T22:05:32.641Z,19.40
2023-03-06T22:07:59.643Z,13.67
2023-03-06T22:10:26.485Z,17.93
2023-03-06T22:12:53.285Z,13.80
2023-03-06T22:15:21.774Z,15.30
2023-03-06T22:17:48.721Z,16.50
2023-03-06T22:20:15.950Z,14.23
2023-03-06T22:22:43.624Z,21.60
2023-03-06T22:25:11.846Z,13.60
2023-03-06T22:27:38.663Z,15.10
2023-03-06T22:30:06.305Z,14.30
2023-03-06T22:32:33.346Z,17.23
2023-03-06T22:35:00.150Z,17.60
2023-03-06T22:37:27.167Z,13.33
2023-03-06T22:39:54.233Z,15.87
2023-03-06T22:42:20.970Z,14.17
2023-03-06T22:44:47.879Z,17.40
2023-03-06T22:47:14.671Z,19.07
2023-03-06T22:49:41.358Z,13.33
2023-03-06T22:52:08.178Z,11.87
2023-03-06T22:54:35.033Z,19.50
2023-03-06T22:57:01.894Z,15.97
2023-03-06T22:59:28.967Z,12.47
2023-03-06T23:01:55.767Z,16.10
2023-03-06T23:04:23.138Z,14.07
2023-03-06T23:06:50.204Z,12.70
2023-03-06T23:09:21.865Z,13.27
2023-03-06T23:11:50.046Z,15.17
2023-03-06T23:14:18.253Z,11.80
2023-03-06T23:16:45.736Z,16.03
2023-03-06T23:19:12.708Z,13.90
2023-03-06T23:21:39.512Z,13.07
2023-03-06T23:24:07.501Z,12.07
2023-03-06T23:26:34.800Z,16.20
2023-03-06T23:29:04.284Z,12.90
2023-03-06T23:31:32.294Z,13.57
2023-03-06T23:34:01.556Z,13.60
2023-03-06T23:36:29.296Z,13.60
2023-03-06T23:38:57.203Z,14.10
2023-03-06T23:41:24.507Z,11.10
2023-03-06T23:43:52.945Z,11.07
2023-03-06T23:46:21.803Z,13.60
2023-03-06T23:48:48.650Z,15.00
2023-03-06T23:51:19.021Z,10.90
2023-03-06T23:53:46.854Z,9.33
2023-03-06T23:56:13.733Z,11.50
2023-03-06T23:58:41.240Z,11.20
